createdAt,value
2023-05-10T00:00:29.390Z,17.06
2023-05-10T00:02:56.209Z,17.24
2023-05-10T00:05:22.810Z,17.42
2023-05-10T00:07:49.494Z,17.42
2023-05-10T00:10:16.500Z,17.40
2023-05-10T00:12:44.261Z,17.20
2023-05-10T00:15:11.760Z,17.56
2023-05-10T00:17:38.658Z,17.31
2023-05-10T00:20:06.136Z,17.46
2023-05-10T00:22:33.369Z,17.54
2023-05-10T00:25:00.250Z,17.42
2023-05-10T00:27:26.765Z,17.36
2023-05-10T00:29:53.545Z,17.03
2023-05-10T00:32:20.089Z,17.13
2023-05-10T00:34:46.678Z,16.94
2023-05-10T00:37:14.244Z,16.83
2023-05-10T00:39:40.697Z,16.88
2023-05-10T00:42:07.683Z,16.80
2023-05-10T00:44:34.272Z,16.78
2023-05-10T00:47:00.878Z,16.85
2023-05-10T00:49:27.997Z,16.82
2023-05-10T00:51:54.933Z,16.99
2023-05-10T00:54:21.699Z,16.77
2023-05-10T00:56:50.300Z,16.74
2023-05-10T00:59:18.897Z,16.38
2023-05-10T01:01:49.192Z,16.69
2023-05-10T01:04:16.281Z,16.70
2023-05-10T01:06:43.251Z,16.46
2023-05-10T01:09:10.782Z,16.51
2023-05-10T01:11:40.730Z,16.40
2023-05-10T01:14:07.704Z,16.76
2023-05-10T01:16:38.181Z,16.90
2023-05-10T01:19:16.391Z,16.45
2023-05-10T01:22:31.091Z,16.37
2023-05-10T01:25:24.964Z,16.60
2023-05-10T01:28:22.116Z,16.52
2023-05-10T01:30:57.193Z,16.29
2023-05-10T01:33:29.345Z,16.26
2023-05-10T01:36:04.865Z,16.18
2023-05-10T01:38:44.114Z,16.43
2023-05-10T01:41:29.462Z,16.67
2023-05-10T01:44:01.918Z,16.53
2023-05-10T01:46:38.045Z,16.47
2023-05-10T01:49:09.626Z,16.55
2023-05-10T01:52:09.443Z,16.59
2023-05-10T01:54:39.387Z,16.33
2023-05-10T01:57:10.104Z,16.03
2023-05-10T01:59:41.943Z,16.22
2023-05-10T02:02:12.752Z,16.27
2023-05-10T02:04:41.218Z,16.53
2023-05-10T02:07:09.547Z,16.62
2023-05-10T02:09:38.054Z,16.75
2023-05-10T02:12:07.524Z,16.33
2023-05-10T02:14:37.896Z,16.34
2023-05-10T02:17:07.008Z,16.38
2023-05-10T02:19:34.389Z,16.20
2023-05-10T02:22:02.945Z,16.31
2023-05-10T02:24:30.658Z,16.32
2023-05-10T02:26:58.378Z,16.58
2023-05-10T02:29:28.008Z,16.11
2023-05-10T02:31:56.444Z,16.29
2023-05-10T02:34:23.936Z,16.42
2023-05-10T02:36:52.019Z,15.96
2023-05-10T02:39:21.813Z,16.11
2023-05-10T02:41:49.851Z,16.56
2023-05-10T02:44:19.475Z,16.05
2023-05-10T02:46:46.704Z,16.17
2023-05-10T02:49:13.668Z,16.26
2023-05-10T02:51:44.935Z,16.03
2023-05-10T02:54:17.676Z,16.25
2023-05-10T02:56:58.603Z,16.16
2023-05-10T02:59:25.178Z,16.22
2023-05-10T03:01:51.763Z,16.08
2023-05-10T03:04:18.516Z,16.28
2023-05-10T03:06:45.620Z,16.05
2023-05-10T03:09:16.003Z,16.16
2023-05-10T03:12:05.648Z,15.83
2023-05-10T03:14:48.419Z,16.15
2023-05-10T03:17:55.423Z,15.98
2023-05-10T03:20:27.244Z,15.91
2023-05-10T03:23:03.618Z,15.76
2023-05-10T03:25:32.221Z,15.67
2023-05-10T03:28:00.243Z,15.84
2023-05-10T03:30:27.113Z,16.28
2023-05-10T03:32:53.725Z,16.01
2023-05-10T03:35:20.416Z,15.76
2023-05-10T03:37:48.051Z,15.71
2023-05-10T03:40:14.802Z,15.84
2023-05-10T03:42:41.622Z,15.99
2023-05-10T03:45:09.039Z,16.01
2023-05-10T03:47:36.091Z,15.93
2023-05-10T03:50:03.772Z,15.82
2023-05-10T03:52:31.439Z,16.00
2023-05-10T03:54:58.012Z,16.41
2023-05-10T03:57:24.557Z,16.13
2023-05-10T03:59:51.106Z,16.25
2023-05-10T04:02:18.660Z,16.62
2023-05-10T04:04:45.192Z,15.77
2023-05-10T04:07:11.809Z,16.09
2023-05-10T04:09:38.358Z,16.01
2023-05-10T04:12:05.261Z,15.70
2023-05-10T04:14:32.108Z,16.06
2023-05-10T04:16:58.834Z,15.73
2023-05-10T04:19:25.633Z,15.73
2023-05-10T04:21:52.174Z,16.38
2023-05-10T04:24:18.655Z,16.48
2023-05-10T04:26:45.239Z,16.32
2023-05-10T04:29:11.999Z,16.39
2023-05-10T04:31:38.855Z,15.88
2023-05-10T04:34:07.708Z,16.07
2023-05-10T04:36:36.419Z,16.20
2023-05-10T04:39:04.246Z,16.43
2023-05-10T04:41:31.398Z,16.28
2023-05-10T04:43:58.310Z,16.39
2023-05-10T04:46:27.351Z,16.25
2023-05-10T04:48:53.930Z,16.05
2023-05-10T04:51:21.421Z,16.21
2023-05-10T04:54:01.593Z,16.67
2023-05-10T04:56:32.370Z,16.72
2023-05-10T04:58:58.920Z,16.45
2023-05-10T05:01:25.425Z,16.40
2023-05-10T05:03:53.859Z,16.95
2023-05-10T05:06:22.199Z,16.56
2023-05-10T05:08:50.726Z,16.69
2023-05-10T05:11:18.292Z,16.68
2023-05-10T05:13:45.190Z,16.91
2023-05-10T05:16:12.683Z,16.76
2023-05-10T05:18:39.669Z,16.79
2023-05-10T05:21:18.056Z,16.98
2023-05-10T05:23:44.945Z,16.87
2023-05-10T05:26:11.684Z,17.08
2023-05-10T05:28:38.701Z,16.83
2023-05-10T05:31:06.706Z,16.81
2023-05-10T05:33:35.389Z,17.17
2023-05-10T05:36:03.622Z,16.55
2023-05-10T05:38:30.208Z,16.77
2023-05-10T05:40:57.415Z,16.72
2023-05-10T05:43:24.047Z,16.94
2023-05-10T05:45:50.972Z,16.88
2023-05-10T05:48:17.796Z,17.07
2023-05-10T05:50:47.948Z,16.82
2023-05-10T05:53:14.525Z,17.42
2023-05-10T05:55:41.152Z,17.09
2023-05-10T05:58:08.347Z,16.50
2023-05-10T06:00:35.959Z,16.65
2023-05-10T06:03:02.754Z,16.71
2023-05-10T06:05:29.576Z,17.22
2023-05-10T06:07:56.356Z,17.16
2023-05-10T06:10:23.746Z,16.49
2023-05-10T06:12:50.454Z,16.73
2023-05-10T06:15:17.838Z,17.06
2023-05-10T06:17:45.448Z,16.87
2023-05-10T06:20:12.765Z,17.02
2023-05-10T06:22:39.314Z,17.17
2023-05-10T06:25:06.813Z,17.36
2023-05-10T06:27:34.469Z,17.12
2023-05-10T06:30:11.630Z,17.36
2023-05-10T06:32:39.756Z,16.98
2023-05-10T06:35:06.954Z,17.40
2023-05-10T06:37:33.716Z,17.07
2023-05-10T06:40:02.807Z,17.19
2023-05-10T06:42:30.763Z,17.21
2023-05-10T06:44:57.561Z,17.88
2023-05-10T06:47:24.153Z,17.27
2023-05-10T06:49:52.166Z,17.12
2023-05-10T06:52:18.730Z,18.13
2023-05-10T06:54:45.436Z,17.58
2023-05-10T06:57:23.290Z,17.93
2023-05-10T06:59:57.636Z,17.71
2023-05-10T07:02:24.139Z,17.62
2023-05-10T07:04:51.342Z,17.77
2023-05-10T07:07:18.151Z,18.06
2023-05-10T07:09:44.772Z,17.95
2023-05-10T07:12:13.397Z,17.46
2023-05-10T07:14:41.443Z,18.17
2023-05-10T07:17:07.972Z,18.19
2023-05-10T07:19:34.745Z,17.77
2023-05-10T07:22:01.399Z,18.62
2023-05-10T07:24:28.102Z,18.78
2023-05-10T07:26:54.774Z,18.56
2023-05-10T07:29:21.547Z,18.83
2023-05-10T07:31:48.463Z,19.04
2023-05-10T07:34:15.320Z,19.26
2023-05-10T07:36:43.100Z,18.01
2023-05-10T07:39:09.950Z,18.87
2023-05-10T07:41:38.635Z,18.77
2023-05-10T07:44:07.136Z,18.17
2023-05-10T07:46:33.724Z,18.07
2023-05-10T07:49:00.341Z,18.95
2023-05-10T07:51:27.357Z,18.78
2023-05-10T07:53:54.001Z,18.94
2023-05-10T07:56:33.861Z,19.18
2023-05-10T07:59:01.472Z,17.97
2023-05-10T08:01:33.953Z,19.35
2023-05-10T08:04:01.128Z,18.74
2023-05-10T08:06:30.932Z,19.28
2023-05-10T08:08:57.746Z,20.41
2023-05-10T08:11:24.717Z,19.68
2023-05-10T08:13:52.772Z,20.36
2023-05-10T08:16:19.762Z,19.60
2023-05-10T08:18:47.886Z,20.26
2023-05-10T08:21:16.360Z,20.59
2023-05-10T08:23:45.196Z,21.33
2023-05-10T08:26:12.245Z,20.40
2023-05-10T08:28:38.986Z,21.58
2023-05-10T08:31:06.149Z,22.04
2023-05-10T08:33:33.024Z,20.82
2023-05-10T08:35:59.711Z,21.79
2023-05-10T08:38:26.965Z,21.07
2023-05-10T08:40:58.228Z,22.56
2023-05-10T08:43:28.535Z,22.79
2023-05-10T08:45:56.524Z,22.97
2023-05-10T08:48:25.029Z,21.71
2023-05-10T08:50:55.962Z,22.37
2023-05-10T08:53:26.241Z,22.03
2023-05-10T08:55:53.961Z,21.47
2023-05-10T08:58:22.412Z,21.28
2023-05-10T09:00:52.181Z,21.60
2023-05-10T09:03:19.025Z,21.49
2023-05-10T09:05:46.164Z,22.10
2023-05-10T09:08:15.634Z,21.00
2023-05-10T09:10:44.569Z,21.19
2023-05-10T09:13:12.846Z,21.63
2023-05-10T09:15:39.551Z,21.11
2023-05-10T09:18:06.469Z,20.41
2023-05-10T09:20:33.880Z,20.80
2023-05-10T09:23:00.761Z,20.88
2023-05-10T09:25:27.641Z,21.46
2023-05-10T09:27:54.303Z,21.53
2023-05-10T09:30:28.664Z,20.73
2023-05-10T09:32:56.579Z,20.10
2023-05-10T09:35:28.708Z,19.71
2023-05-10T09:37:59.028Z,19.94
2023-05-10T09:40:30.720Z,19.92
2023-05-10T09:43:07.260Z,20.33
2023-05-10T09:45:38.170Z,21.13
2023-05-10T09:48:07.250Z,20.93
2023-05-10T09:50:35.976Z,20.37
2023-05-10T09:53:04.696Z,19.64
2023-05-10T09:55:46.661Z,19.17
2023-05-10T09:58:16.502Z,18.55
2023-05-10T10:00:45.132Z,19.09
2023-05-10T10:03:16.578Z,19.83
2023-05-10T10:05:44.805Z,19.97
2023-05-10T10:08:12.948Z,20.58
2023-05-10T10:10:41.520Z,21.81
2023-05-10T10:13:10.907Z,23.12
2023-05-10T10:15:37.893Z,22.06
2023-05-10T10:18:06.339Z,22.14
2023-05-10T10:20:33.187Z,19.40
2023-05-10T10:22:59.960Z,18.77
2023-05-10T10:25:26.700Z,19.21
2023-05-10T10:27:53.263Z,19.64
2023-05-10T10:30:29.206Z,19.17
2023-05-10T10:33:27.443Z,19.60
2023-05-10T10:35:56.755Z,19.13
2023-05-10T10:38:23.973Z,18.83
2023-05-10T10:41:03.704Z,19.39
2023-05-10T10:43:30.570Z,18.98
2023-05-10T10:46:19.172Z,19.36
2023-05-10T10:48:50.622Z,19.39
2023-05-10T10:51:18.618Z,20.06
2023-05-10T10:53:45.835Z,19.81
2023-05-10T10:56:16.163Z,20.26
2023-05-10T10:58:52.154Z,19.48
2023-05-10T11:01:20.688Z,20.23
2023-05-10T11:04:00.203Z,19.64
2023-05-10T11:06:35.336Z,20.26
2023-05-10T11:09:10.292Z,20.03
2023-05-10T11:11:49.119Z,20.16
2023-05-10T11:14:22.299Z,20.67
2023-05-10T11:16:49.448Z,19.74
2023-05-10T11:19:17.493Z,20.33
2023-05-10T11:21:47.415Z,20.05
2023-05-10T11:24:16.271Z,20.26
2023-05-10T11:26:43.190Z,19.91
2023-05-10T11:29:09.985Z,21.15
2023-05-10T11:31:43.450Z,21.60
2023-05-10T11:34:10.245Z,21.66
2023-05-10T11:36:37.457Z,22.17
2023-05-10T11:39:04.917Z,22.37
2023-05-10T11:41:32.168Z,22.68
2023-05-10T11:43:59.504Z,22.81
2023-05-10T11:46:28.275Z,22.02
2023-05-10T11:49:04.951Z,22.48
2023-05-10T11:51:40.384Z,21.06
2023-05-10T11:54:11.850Z,21.06
2023-05-10T11:56:42.596Z,19.83
2023-05-10T11:59:10.146Z,20.94
2023-05-10T12:01:37.215Z,20.66
2023-05-10T12:04:04.178Z,20.07
2023-05-10T12:06:33.496Z,19.77
2023-05-10T12:09:00.603Z,18.49
2023-05-10T12:11:29.354Z,18.38
2023-05-10T12:13:59.489Z,19.07
2023-05-10T12:16:29.548Z,19.12
2023-05-10T12:19:01.212Z,19.51
2023-05-10T12:21:32.467Z,19.41
2023-05-10T12:24:04.715Z,19.23
2023-05-10T12:26:31.681Z,20.31
2023-05-10T12:29:18.725Z,20.16
2023-05-10T12:31:53.797Z,19.53
2023-05-10T12:34:35.291Z,19.84
2023-05-10T12:37:03.308Z,20.15
2023-05-10T12:39:45.041Z,19.59
2023-05-10T12:42:11.881Z,21.71
2023-05-10T12:44:38.802Z,20.96
2023-05-10T12:47:05.448Z,21.72
2023-05-10T12:49:32.341Z,22.91
2023-05-10T12:51:58.998Z,22.56
2023-05-10T12:54:26.766Z,22.50
2023-05-10T12:56:53.363Z,23.53
2023-05-10T12:59:19.959Z,24.26
2023-05-10T13:01:46.675Z,24.35
2023-05-10T13:04:13.397Z,25.29
2023-05-10T13:06:41.162Z,24.26
2023-05-10T13:09:08.004Z,25.55
2023-05-10T13:11:34.888Z,25.92
2023-05-10T13:14:01.617Z,25.28
2023-05-10T13:16:28.485Z,25.65
2023-05-10T13:18:55.160Z,23.70
2023-05-10T13:21:21.861Z,24.70
2023-05-10T13:23:48.620Z,25.56
2023-05-10T13:26:15.485Z,24.07
2023-05-10T13:28:42.123Z,24.36
2023-05-10T13:31:09.107Z,25.14
2023-05-10T13:33:35.831Z,25.49
2023-05-10T13:36:02.581Z,24.40
2023-05-10T13:38:31.502Z,24.88
2023-05-10T13:40:59.134Z,24.86
2023-05-10T13:43:25.912Z,24.02
2023-05-10T13:45:53.170Z,25.32
2023-05-10T13:48:19.780Z,24.31
2023-05-10T13:50:47.160Z,24.06
2023-05-10T13:53:15.646Z,24.67
2023-05-10T13:55:42.817Z,24.09
2023-05-10T13:58:09.610Z,24.32
2023-05-10T14:00:36.423Z,23.97
2023-05-10T14:03:03.352Z,24.91
2023-05-10T14:05:30.327Z,25.19
2023-05-10T14:07:57.989Z,25.17
2023-05-10T14:10:24.742Z,24.53
2023-05-10T14:12:51.532Z,25.23
2023-05-10T14:15:18.307Z,24.51
2023-05-10T14:17:45.132Z,24.48
2023-05-10T14:20:12.440Z,24.15
2023-05-10T14:22:39.024Z,24.11
2023-05-10T14:25:05.784Z,24.59
2023-05-10T14:27:33.316Z,24.42
2023-05-10T14:29:59.849Z,24.51
2023-05-10T14:32:28.189Z,23.67
2023-05-10T14:34:57.639Z,23.97
2023-05-10T14:37:24.322Z,24.63
2023-05-10T14:39:50.910Z,22.65
2023-05-10T14:42:17.722Z,24.06
2023-05-10T14:44:44.279Z,23.07
2023-05-10T14:47:12.124Z,23.50
2023-05-10T14:49:39.121Z,22.72
2023-05-10T14:52:05.845Z,22.85
2023-05-10T14:54:34.724Z,24.49
2023-05-10T14:57:01.652Z,23.17
2023-05-10T14:59:30.727Z,23.23
2023-05-10T15:01:57.843Z,23.49
2023-05-10T15:04:26.015Z,23.37
2023-05-10T15:07:00.042Z,23.92
2023-05-10T15:09:28.609Z,23.44
2023-05-10T15:11:56.136Z,24.22
2023-05-10T15:14:23.881Z,23.22
2023-05-10T15:16:51.928Z,23.57
2023-05-10T15:19:18.745Z,23.69
2023-05-10T15:21:46.169Z,24.22
2023-05-10T15:24:13.011Z,24.05
2023-05-10T15:26:39.807Z,23.70
2023-05-10T15:29:06.395Z,24.61
2023-05-10T15:31:36.283Z,24.67
2023-05-10T15:34:02.997Z,23.42
2023-05-10T15:36:30.116Z,23.97
2023-05-10T15:38:56.855Z,23.78
2023-05-10T15:41:23.774Z,23.58
2023-05-10T15:43:50.355Z,23.99
2023-05-10T15:46:17.021Z,23.48
2023-05-10T15:48:44.027Z,23.03
2023-05-10T15:51:10.532Z,23.82
2023-05-10T15:53:37.268Z,23.64
2023-05-10T15:56:04.182Z,23.10
2023-05-10T15:58:30.848Z,23.53
2023-05-10T16:00:57.814Z,23.24
2023-05-10T16:03:24.866Z,22.67
2023-05-10T16:05:51.443Z,23.03
2023-05-10T16:08:18.038Z,23.38
2023-05-10T16:10:44.697Z,22.96
2023-05-10T16:13:11.557Z,22.25
2023-05-10T16:15:38.122Z,22.68
2023-05-10T16:18:05.099Z,22.79
2023-05-10T16:20:32.722Z,22.80
2023-05-10T16:23:04.309Z,22.08
2023-05-10T16:25:33.959Z,22.03
2023-05-10T16:28:03.135Z,21.87
2023-05-10T16:30:30.843Z,22.47
2023-05-10T16:32:59.008Z,22.82
2023-05-10T16:35:26.550Z,22.60
2023-05-10T16:37:53.430Z,21.90
2023-05-10T16:40:20.065Z,22.76
2023-05-10T16:42:46.909Z,22.13
2023-05-10T16:45:13.750Z,22.24
2023-05-10T16:47:40.815Z,22.77
2023-05-10T16:50:08.063Z,22.39
2023-05-10T16:52:36.982Z,22.52
2023-05-10T16:55:06.618Z,21.76
2023-05-10T16:57:33.205Z,22.50
2023-05-10T17:00:00.147Z,22.20
2023-05-10T17:02:27.264Z,21.84
2023-05-10T17:04:56.332Z,21.47
2023-05-10T17:07:25.419Z,21.56
2023-05-10T17:09:53.016Z,21.06
2023-05-10T17:12:19.583Z,21.47
2023-05-10T17:14:46.314Z,20.85
2023-05-10T17:17:13.308Z,21.37
2023-05-10T17:19:39.931Z,21.14
2023-05-10T17:22:06.583Z,20.88
2023-05-10T17:24:33.308Z,21.65
2023-05-10T17:27:01.835Z,21.41
2023-05-10T17:29:29.142Z,19.91
2023-05-10T17:31:55.865Z,20.80
2023-05-10T17:34:22.703Z,20.85
2023-05-10T17:36:49.422Z,20.87
2023-05-10T17:39:16.239Z,20.89
2023-05-10T17:41:42.801Z,20.86
2023-05-10T17:44:09.440Z,20.10
2023-05-10T17:46:39.060Z,20.49
2023-05-10T17:49:05.739Z,19.45
2023-05-10T17:51:32.897Z,20.24
2023-05-10T17:54:00.839Z,20.44
2023-05-10T17:56:27.862Z,20.37
2023-05-10T17:58:54.790Z,20.87
2023-05-10T18:01:21.503Z,21.22
2023-05-10T18:03:49.719Z,20.48
2023-05-10T18:06:16.659Z,20.83
2023-05-10T18:08:43.189Z,20.38
2023-05-10T18:11:10.243Z,20.80
2023-05-10T18:13:38.234Z,20.59
2023-05-10T18:16:06.131Z,20.22
2023-05-10T18:18:32.786Z,20.94
2023-05-10T18:20:59.626Z,20.49
2023-05-10T18:23:27.954Z,20.14
2023-05-10T18:25:54.506Z,20.34
2023-05-10T18:28:21.020Z,20.59
2023-05-10T18:30:47.739Z,20.54
2023-05-10T18:33:15.891Z,20.67
2023-05-10T18:35:42.725Z,20.61
2023-05-10T18:38:13.504Z,20.36
2023-05-10T18:40:40.893Z,20.64
2023-05-10T18:43:09.314Z,19.99
2023-05-10T18:45:36.025Z,19.73
2023-05-10T18:48:03.014Z,19.84
2023-05-10T18:50:29.833Z,19.63
2023-05-10T18:52:56.635Z,20.09
2023-05-10T18:55:28.313Z,19.56
2023-05-10T18:57:54.903Z,19.66
2023-05-10T19:00:21.844Z,19.54
2023-05-10T19:02:48.894Z,19.34
2023-05-10T19:05:16.293Z,19.18
2023-05-10T19:07:43.977Z,19.16
2023-05-10T19:10:12.747Z,19.30
2023-05-10T19:12:41.497Z,18.67
2023-05-10T19:15:09.259Z,18.72
2023-05-10T19:17:36.754Z,18.68
2023-05-10T19:20:09.143Z,18.85
2023-05-10T19:22:54.311Z,18.30
2023-05-10T19:25:29.021Z,18.33
2023-05-10T19:28:02.097Z,18.15
2023-05-10T19:30:30.515Z,17.83
2023-05-10T19:32:57.354Z,17.91
2023-05-10T19:35:24.054Z,18.19
2023-05-10T19:37:52.498Z,18.19
2023-05-10T19:40:20.065Z,18.22
2023-05-10T19:42:46.720Z,18.15
2023-05-10T19:45:16.414Z,18.15
2023-05-10T19:47:44.084Z,18.11
2023-05-10T19:50:12.306Z,18.12
2023-05-10T19:52:39.264Z,17.83
2023-05-10T19:55:07.802Z,17.60
2023-05-10T19:57:34.548Z,17.58
2023-05-10T20:00:01.092Z,17.78
2023-05-10T20:02:27.884Z,17.87
2023-05-10T20:04:55.167Z,17.78
2023-05-10T20:07:21.965Z,17.70
2023-05-10T20:09:48.686Z,17.78
2023-05-10T20:12:16.433Z,17.84
2023-05-10T20:14:43.095Z,17.32
2023-05-10T20:17:10.841Z,17.52
2023-05-10T20:19:37.698Z,17.41
2023-05-10T20:22:05.416Z,17.45
2023-05-10T20:24:32.334Z,17.42
2023-05-10T20:26:59.169Z,17.59
2023-05-10T20:29:26.383Z,17.46
2023-05-10T20:31:52.876Z,17.43
2023-05-10T20:34:20.019Z,17.29
2023-05-10T20:36:46.673Z,17.54
2023-05-10T20:39:14.178Z,17.27
2023-05-10T20:41:40.829Z,17.60
2023-05-10T20:44:07.760Z,17.80
2023-05-10T20:46:36.029Z,17.60
2023-05-10T20:49:02.961Z,17.18
2023-05-10T20:51:30.420Z,17.58
2023-05-10T20:53:58.619Z,17.21
2023-05-10T20:56:27.074Z,17.08
2023-05-10T20:58:53.762Z,16.99
2023-05-10T21:01:20.430Z,16.68
2023-05-10T21:03:47.334Z,16.67
2023-05-10T21:06:14.041Z,16.76
2023-05-10T21:08:40.907Z,16.45
2023-05-10T21:11:07.530Z,16.59
2023-05-10T21:13:35.450Z,16.41
2023-05-10T21:16:02.022Z,16.04
2023-05-10T21:18:29.210Z,16.35
2023-05-10T21:20:55.877Z,16.63
2023-05-10T21:23:22.647Z,16.56
2023-05-10T21:25:49.205Z,16.41
2023-05-10T21:28:16.336Z,16.40
2023-05-10T21:30:43.021Z,16.53
2023-05-10T21:33:09.576Z,16.34
2023-05-10T21:35:39.256Z,16.07
2023-05-10T21:38:05.969Z,16.69
2023-05-10T21:40:32.552Z,16.56
2023-05-10T21:42:59.147Z,16.59
2023-05-10T21:45:25.783Z,16.66
2023-05-10T21:47:52.631Z,16.85
2023-05-10T21:50:19.734Z,16.74
2023-05-10T21:52:46.496Z,16.53
2023-05-10T21:55:13.095Z,16.15
2023-05-10T21:57:39.916Z,15.82
2023-05-10T22:00:07.308Z,16.43
2023-05-10T22:02:35.611Z,16.50
2023-05-10T22:05:03.781Z,16.17
2023-05-10T22:07:31.331Z,16.15
2023-05-10T22:09:58.556Z,16.46
2023-05-10T22:12:26.106Z,16.52
2023-05-10T22:15:02.867Z,16.20
2023-05-10T22:17:37.366Z,15.97
2023-05-10T22:20:04.955Z,15.81
2023-05-10T22:22:34.745Z,15.86
2023-05-10T22:25:01.356Z,15.80
2023-05-10T22:27:27.917Z,15.74
2023-05-10T22:29:55.060Z,15.35
2023-05-10T22:32:21.889Z,15.83
2023-05-10T22:34:52.510Z,15.72
2023-05-10T22:37:19.114Z,15.81
2023-05-10T22:39:46.552Z,15.88
2023-05-10T22:42:16.194Z,15.50
2023-05-10T22:44:43.628Z,15.52
2023-05-10T22:47:12.352Z,15.80
2023-05-10T22:49:38.995Z,15.49
2023-05-10T22:52:05.740Z,15.22
2023-05-10T22:54:33.717Z,15.49
2023-05-10T22:57:02.212Z,15.87
2023-05-10T22:59:30.282Z,15.46
2023-05-10T23:01:57.022Z,15.49
2023-05-10T23:04:23.962Z,15.39
2023-05-10T23:06:50.817Z,15.16
2023-05-10T23:09:17.733Z,15.11
2023-05-10T23:11:44.630Z,15.07
2023-05-10T23:14:11.224Z,15.21
2023-05-10T23:16:37.808Z,15.23
2023-05-10T23:19:04.604Z,14.92
2023-05-10T23:21:32.209Z,15.29
2023-05-10T23:24:00.052Z,15.18
2023-05-10T23:26:27.942Z,14.99
2023-05-10T23:28:54.584Z,14.93
2023-05-10T23:31:21.524Z,14.86
2023-05-10T23:33:48.390Z,14.71
2023-05-10T23:36:14.861Z,14.86
2023-05-10T23:38:41.654Z,14.89
2023-05-10T23:41:08.236Z,14.95
2023-05-10T23:43:34.810Z,15.00
2023-05-10T23:46:01.667Z,15.01
2023-05-10T23:48:28.611Z,15.32
2023-05-10T23:50:55.244Z,14.97
2023-05-10T23:53:22.006Z,15.01
2023-05-10T23:55:51.324Z,14.86
2023-05-10T23:58:17.861Z,15.11
